createdAt,value
2023-02-16T00:04:03.307Z,21.48
2023-02-16T00:09:27.075Z,20.75
2023-02-16T00:14:52.200Z,23.17
2023-02-16T00:20:16.852Z,22.52
2023-02-16T00:25:40.758Z,21.13
2023-02-16T00:31:06.639Z,21.17
2023-02-16T00:36:31.939Z,23.33
2023-02-16T00:41:57.451Z,21.23
2023-02-16T00:47:26.643Z,19.42
2023-02-16T00:52:51.627Z,22.60
2023-02-16T00:58:27.610Z,21.98
2023-02-16T01:03:52.988Z,21.70
2023-02-16T01:09:36.251Z,20.33
2023-02-16T01:14:59.955Z,19.92
2023-02-16T01:20:27.333Z,20.77
2023-02-16T01:25:51.051Z,20.20
2023-02-16T01:31:16.122Z,18.40
2023-02-16T01:36:44.030Z,20.00
2023-02-16T01:42:25.362Z,20.63
2023-02-16T01:47:53.739Z,19.93
2023-02-16T01:53:24.124Z,19.92
2023-02-16T01:58:51.853Z,20.02
2023-02-16T02:04:43.173Z,20.80
2023-02-16T02:10:15.053Z,19.30
2023-02-16T02:15:38.980Z,17.67
2023-02-16T02:21:45.032Z,16.15
2023-02-16T02:27:17.232Z,18.48
2023-02-16T02:32:56.211Z,18.38
2023-02-16T02:38:26.710Z,18.45
2023-02-16T02:49:19.188Z,17.90
2023-02-16T02:55:00.581Z,17.52
2023-02-16T03:00:43.946Z,17.47
2023-02-16T03:06:12.564Z,17.98
2023-02-16T03:11:54.002Z,17.40
2023-02-16T03:17:41.635Z,16.80
2023-02-16T03:23:24.565Z,20.70
2023-02-16T03:29:06.611Z,17.50
2023-02-16T03:34:33.110Z,20.92
2023-02-16T03:40:13.953Z,18.23
2023-02-16T03:45:41.179Z,20.85
2023-02-16T03:51:06.906Z,17.98
2023-02-16T03:56:30.728Z,18.30
2023-02-16T04:01:54.518Z,19.27
2023-02-16T04:07:19.748Z,18.45
2023-02-16T04:12:43.465Z,17.67
2023-02-16T04:18:07.232Z,18.25
2023-02-16T04:23:32.416Z,18.15
2023-02-16T04:28:56.172Z,16.55
2023-02-16T04:34:20.029Z,18.10
2023-02-16T04:39:45.153Z,18.60
2023-02-16T04:45:10.331Z,16.42
2023-02-16T04:50:34.082Z,18.52
2023-02-16T04:55:59.149Z,14.73
2023-02-16T05:01:24.248Z,18.05
2023-02-16T05:06:48.095Z,17.15
2023-02-16T05:12:31.184Z,17.20
2023-02-16T05:17:54.940Z,16.38
2023-02-16T05:23:18.620Z,17.30
2023-02-16T05:28:43.733Z,16.75
2023-02-16T05:34:07.461Z,15.02
2023-02-16T05:39:31.415Z,16.58
2023-02-16T05:44:56.516Z,15.88
2023-02-16T05:50:20.442Z,18.13
2023-02-16T05:55:46.025Z,16.38
2023-02-16T06:01:11.197Z,15.57
2023-02-16T06:06:34.905Z,16.75
2023-02-16T06:11:58.657Z,18.63
2023-02-16T06:17:23.832Z,17.35
2023-02-16T06:22:47.602Z,22.23
2023-02-16T06:28:11.652Z,20.42
2023-02-16T06:33:36.825Z,19.30
2023-02-16T06:39:00.556Z,20.02
2023-02-16T06:44:24.292Z,18.58
2023-02-16T06:49:49.370Z,20.10
2023-02-16T06:55:13.395Z,23.92
2023-02-16T07:00:37.174Z,24.83
2023-02-16T07:06:02.403Z,27.05
2023-02-16T07:11:26.165Z,28.20
2023-02-16T07:16:49.958Z,29.02
2023-02-16T07:22:15.320Z,25.35
2023-02-16T07:27:39.197Z,26.83
2023-02-16T07:33:02.941Z,26.70
2023-02-16T07:38:28.264Z,26.95
2023-02-16T07:43:51.964Z,27.58
2023-02-16T07:49:15.923Z,27.75
2023-02-16T07:54:41.117Z,28.60
2023-02-16T08:00:05.912Z,30.48
2023-02-16T08:05:35.761Z,29.13
2023-02-16T08:11:01.108Z,29.95
2023-02-16T08:16:26.361Z,30.90
2023-02-16T08:21:51.570Z,30.73
2023-02-16T08:27:16.745Z,32.70
2023-02-16T08:32:41.358Z,34.67
2023-02-16T08:38:05.925Z,36.17
2023-02-16T08:43:31.039Z,34.90
2023-02-16T08:48:56.880Z,36.38
2023-02-16T08:54:22.533Z,34.85
2023-02-16T09:00:08.025Z,35.67
2023-02-16T09:05:32.250Z,39.30
2023-02-16T09:10:55.992Z,34.55
2023-02-16T09:16:23.711Z,36.70
2023-02-16T09:21:50.685Z,37.47
2023-02-16T09:27:14.500Z,38.70
2023-02-16T09:32:39.698Z,38.17
2023-02-16T09:38:03.603Z,37.97
2023-02-16T09:43:41.142Z,35.25
2023-02-16T09:49:06.535Z,35.88
2023-02-16T09:54:40.112Z,35.58
2023-02-16T10:00:12.721Z,36.17
2023-02-16T10:05:46.110Z,32.25
2023-02-16T10:11:33.926Z,32.88
2023-02-16T10:17:08.976Z,28.50
2023-02-16T10:22:37.743Z,27.58
2023-02-16T10:28:13.502Z,27.92
2023-02-16T10:33:43.571Z,26.77
2023-02-16T10:39:17.456Z,26.27
2023-02-16T10:44:46.521Z,25.08
2023-02-16T10:50:23.051Z,25.30
2023-02-16T10:55:48.244Z,25.15
2023-02-16T11:01:17.422Z,24.52
2023-02-16T11:06:41.945Z,25.08
2023-02-16T11:12:19.322Z,22.10
2023-02-16T11:17:51.383Z,13.82
2023-02-16T11:23:22.305Z,19.98
2023-02-16T11:28:49.257Z,23.85
2023-02-16T11:34:26.177Z,23.58
2023-02-16T11:39:52.342Z,23.10
2023-02-16T11:45:28.704Z,22.00
2023-02-16T11:50:57.567Z,18.50
2023-02-16T11:56:27.477Z,17.45
2023-02-16T12:02:13.241Z,20.10
2023-02-16T12:07:43.321Z,22.98
2023-02-16T12:13:17.572Z,21.20
2023-02-16T12:18:49.406Z,19.33
2023-02-16T12:24:24.162Z,21.40
2023-02-16T12:29:56.075Z,20.67
2023-02-16T12:35:39.564Z,22.85
2023-02-16T12:41:15.569Z,20.48
2023-02-16T12:46:43.162Z,23.08
2023-02-16T12:52:13.498Z,22.48
2023-02-16T12:57:37.810Z,22.85
2023-02-16T13:03:16.249Z,23.10
2023-02-16T13:08:46.740Z,25.10
2023-02-16T13:14:17.717Z,21.70
2023-02-16T13:19:42.020Z,23.98
2023-02-16T13:25:35.272Z,24.67
2023-02-16T13:31:12.580Z,25.50
2023-02-16T13:37:09.330Z,25.08
2023-02-16T13:42:58.649Z,25.45
2023-02-16T13:48:27.963Z,25.52
2023-02-16T13:53:55.663Z,26.63
2023-02-16T13:59:59.360Z,26.30
2023-02-16T14:05:31.495Z,26.27
2023-02-16T14:11:04.239Z,26.38
2023-02-16T14:16:33.697Z,24.63
2023-02-16T14:22:11.601Z,31.58
2023-02-16T14:27:44.616Z,26.05
2023-02-16T14:33:24.873Z,24.58
2023-02-16T14:38:52.020Z,25.25
2023-02-16T14:44:46.823Z,24.15
2023-02-16T14:50:24.014Z,23.42
2023-02-16T14:56:13.876Z,22.33
2023-02-16T15:01:41.523Z,24.17
2023-02-16T15:07:07.621Z,24.30
2023-02-16T15:12:33.503Z,26.02
2023-02-16T15:17:57.382Z,26.58
2023-02-16T15:23:23.016Z,30.35
2023-02-16T15:28:55.672Z,28.48
2023-02-16T15:40:14.998Z,28.17
2023-02-16T15:45:38.865Z,29.17
2023-02-16T15:51:11.050Z,29.48
2023-02-16T15:56:45.252Z,31.60
2023-02-16T16:02:15.945Z,30.50
2023-02-16T16:07:42.456Z,29.50
2023-02-16T16:13:08.930Z,32.65
2023-02-16T16:18:44.304Z,37.05
2023-02-16T16:24:10.156Z,35.05
2023-02-16T16:29:36.972Z,31.63
2023-02-16T16:35:02.125Z,33.10
2023-02-16T16:40:31.541Z,34.42
2023-02-16T16:45:58.705Z,35.78
2023-02-16T16:51:39.521Z,34.50
2023-02-16T16:57:09.097Z,34.05
2023-02-16T17:02:32.822Z,32.08
2023-02-16T17:07:57.993Z,32.80
2023-02-16T17:13:22.779Z,31.58
2023-02-16T17:18:46.510Z,34.40
2023-02-16T17:24:11.609Z,33.53
2023-02-16T17:29:35.333Z,33.03
2023-02-16T17:34:59.132Z,34.88
2023-02-16T17:40:25.436Z,38.13
2023-02-16T17:45:50.030Z,31.98
2023-02-16T17:51:16.465Z,31.63
2023-02-16T17:56:41.743Z,29.98
2023-02-16T18:02:05.472Z,30.42
2023-02-16T18:07:29.272Z,30.48
2023-02-16T18:12:54.408Z,28.23
2023-02-16T18:18:19.732Z,27.08
2023-02-16T18:23:43.481Z,28.70
2023-02-16T18:29:08.590Z,28.38
2023-02-16T18:34:33.397Z,26.23
2023-02-16T18:39:57.251Z,27.30
2023-02-16T18:45:22.408Z,25.95
2023-02-16T18:50:46.276Z,27.80
2023-02-16T18:56:11.493Z,27.85
2023-02-16T19:01:36.674Z,31.05
2023-02-16T19:07:00.424Z,33.13
2023-02-16T19:12:24.125Z,31.17
2023-02-16T19:17:49.565Z,30.48
2023-02-16T19:23:13.853Z,30.48
2023-02-16T19:28:37.726Z,30.05
2023-02-16T19:34:03.630Z,30.05
2023-02-16T19:39:27.408Z,31.60
2023-02-16T19:44:51.161Z,30.65
2023-02-16T19:50:16.273Z,31.80
2023-02-16T19:55:42.066Z,32.45
2023-02-16T20:01:10.018Z,32.75
2023-02-16T20:06:39.248Z,32.45
2023-02-16T20:12:03.043Z,35.17
2023-02-16T20:17:27.008Z,35.58
2023-02-16T20:22:52.116Z,36.63
2023-02-16T20:28:15.843Z,33.45
2023-02-16T20:33:39.838Z,32.72
2023-02-16T20:39:05.567Z,31.55
2023-02-16T20:44:29.298Z,30.00
2023-02-16T20:49:53.098Z,31.38
2023-02-16T20:55:19.766Z,34.85
2023-02-16T21:00:44.493Z,33.58
2023-02-16T21:06:08.380Z,33.42
2023-02-16T21:11:33.593Z,35.28
2023-02-16T21:16:57.827Z,33.95
2023-02-16T21:22:21.541Z,30.60
2023-02-16T21:27:46.612Z,33.78
2023-02-16T21:33:10.423Z,31.98
2023-02-16T21:38:35.481Z,31.45
2023-02-16T21:44:02.687Z,31.73
2023-02-16T21:49:26.436Z,31.42
2023-02-16T21:55:07.666Z,33.45
2023-02-16T22:00:32.957Z,31.50
2023-02-16T22:05:56.715Z,31.40
2023-02-16T22:11:20.651Z,34.33
2023-02-16T22:16:47.577Z,34.35
2023-02-16T22:22:11.312Z,33.63
2023-02-16T22:27:35.046Z,28.60
2023-02-16T22:33:00.125Z,31.95
2023-02-16T22:38:23.844Z,33.75
2023-02-16T22:43:47.519Z,21.48
2023-02-16T22:49:12.801Z,31.33
2023-02-16T22:54:36.518Z,31.48
2023-02-16T23:00:00.263Z,30.05
2023-02-16T23:05:25.392Z,31.58
2023-02-16T23:11:00.898Z,28.90
2023-02-16T23:16:26.395Z,33.83
2023-02-16T23:21:52.401Z,33.55
2023-02-16T23:27:16.198Z,33.00
2023-02-16T23:32:41.116Z,33.15
2023-02-16T23:38:06.360Z,31.85
2023-02-16T23:43:30.246Z,31.15
2023-02-16T23:48:54.004Z,31.70
2023-02-16T23:54:19.071Z,29.60
2023-02-16T23:59:43.484Z,26.77
